Terminal Aerodrome Forecast
Issued by NWS Charleston, WV

Current Version | Previous Version | Graphics & Text | Print | Product List | Glossary On
Versions: 1 2 3 4 5 6 7 8 9 10 11 12 13 14 15 16 17 18 19 20 21
000
FTUS41 KRLX 240236 AAA
TAFEKN
TAF AMD
KEKN 240236Z 2403/2424 00000KT P6SM BKN080
     FM240400 00000KT 4SM BR SCT080
     FM240600 00000KT 2SM BR SCT001
     FM240700 00000KT 1/4SM FG VV001
     FM241200 00000KT 2SM BR BKN001
     FM241300 VRB03KT 4SM BR SCT001
     FM241400 26004KT P6SM SCT050=

USA.gov is the U.S. government's official web portal to all federal, state and local government web resources and services.